sensor_id;sensor_type;location;lat;lon;timestamp;temperature;humidity
10344;DHT22;5217;43.960;10.954;2022-08-25T00:01:54;27.80;90.00
10344;DHT22;5217;43.960;10.954;2022-08-25T00:04:23;27.80;90.10
10344;DHT22;5217;43.960;10.954;2022-08-25T00:06:52;27.80;90.20
10344;DHT22;5217;43.960;10.954;2022-08-25T00:09:29;27.70;90.10
10344;DHT22;5217;43.960;10.954;2022-08-25T00:12:00;27.80;90.30
10344;DHT22;5217;43.960;10.954;2022-08-25T00:14:32;27.80;90.00
10344;DHT22;5217;43.960;10.954;2022-08-25T00:17:01;27.80;90.10
10344;DHT22;5217;43.960;10.954;2022-08-25T00:19:35;27.80;90.10
10344;DHT22;5217;43.960;10.954;2022-08-25T00:22:05;27.80;90.20
10344;DHT22;5217;43.960;10.954;2022-08-25T00:24:34;27.80;90.20
10344;DHT22;5217;43.960;10.954;2022-08-25T00:27:05;27.70;90.30
10344;DHT22;5217;43.960;10.954;2022-08-25T00:29:33;27.70;90.50
10344;DHT22;5217;43.960;10.954;2022-08-25T00:32:04;27.70;90.60
10344;DHT22;5217;43.960;10.954;2022-08-25T00:34:38;27.70;90.60
10344;DHT22;5217;43.960;10.954;2022-08-25T00:37:07;27.70;90.60
10344;DHT22;5217;43.960;10.954;2022-08-25T00:39:37;27.60;90.50
10344;DHT22;5217;43.960;10.954;2022-08-25T00:42:08;27.60;90.60
10344;DHT22;5217;43.960;10.954;2022-08-25T00:44:42;27.60;90.50
10344;DHT22;5217;43.960;10.954;2022-08-25T00:47:11;27.60;90.50
10344;DHT22;5217;43.960;10.954;2022-08-25T00:49:42;27.60;90.60
10344;DHT22;5217;43.960;10.954;2022-08-25T00:52:13;27.60;90.70
10344;DHT22;5217;43.960;10.954;2022-08-25T00:54:46;27.60;90.60
10344;DHT22;5217;43.960;10.954;2022-08-25T00:57:22;27.60;90.70
10344;DHT22;5217;43.960;10.954;2022-08-25T01:00:03;27.50;90.70
10344;DHT22;5217;43.960;10.954;2022-08-25T01:02:32;27.50;90.70
10344;DHT22;5217;43.960;10.954;2022-08-25T01:05:00;27.50;90.50
10344;DHT22;5217;43.960;10.954;2022-08-25T01:07:29;27.50;90.50
10344;DHT22;5217;43.960;10.954;2022-08-25T01:09:57;27.50;90.70
10344;DHT22;5217;43.960;10.954;2022-08-25T01:12:28;27.50;90.90
10344;DHT22;5217;43.960;10.954;2022-08-25T01:14:57;27.50;91.00
10344;DHT22;5217;43.960;10.954;2022-08-25T01:17:32;27.50;91.10
10344;DHT22;5217;43.960;10.954;2022-08-25T01:20:02;27.50;91.10
10344;DHT22;5217;43.960;10.954;2022-08-25T01:22:32;27.40;91.10
10344;DHT22;5217;43.960;10.954;2022-08-25T01:25:04;27.40;91.10
10344;DHT22;5217;43.960;10.954;2022-08-25T01:27:34;27.40;91.20
10344;DHT22;5217;43.960;10.954;2022-08-25T01:30:04;27.40;91.00
10344;DHT22;5217;43.960;10.954;2022-08-25T01:32:33;27.40;91.00
10344;DHT22;5217;43.960;10.954;2022-08-25T01:35:02;27.40;91.10
10344;DHT22;5217;43.960;10.954;2022-08-25T01:37:34;27.40;91.20
10344;DHT22;5217;43.960;10.954;2022-08-25T01:40:04;27.40;91.30
10344;DHT22;5217;43.960;10.954;2022-08-25T01:42:41;27.30;91.20
10344;DHT22;5217;43.960;10.954;2022-08-25T01:45:10;27.30;91.30
10344;DHT22;5217;43.960;10.954;2022-08-25T01:47:38;27.30;91.30
10344;DHT22;5217;43.960;10.954;2022-08-25T01:50:07;27.30;91.20
10344;DHT22;5217;43.960;10.954;2022-08-25T01:52:46;27.30;91.20
10344;DHT22;5217;43.960;10.954;2022-08-25T01:55:17;27.30;91.40
10344;DHT22;5217;43.960;10.954;2022-08-25T01:57:45;27.30;91.50
10344;DHT22;5217;43.960;10.954;2022-08-25T02:00:16;27.30;91.60
10344;DHT22;5217;43.960;10.954;2022-08-25T02:02:45;27.20;91.70
10344;DHT22;5217;43.960;10.954;2022-08-25T02:05:21;27.20;91.60
10344;DHT22;5217;43.960;10.954;2022-08-25T02:07:51;27.20;91.50
10344;DHT22;5217;43.960;10.954;2022-08-25T02:10:19;27.20;91.50
10344;DHT22;5217;43.960;10.954;2022-08-25T02:12:49;27.20;91.70
10344;DHT22;5217;43.960;10.954;2022-08-25T02:15:20;27.10;91.70
10344;DHT22;5217;43.960;10.954;2022-08-25T02:17:49;27.20;91.70
10344;DHT22;5217;43.960;10.954;2022-08-25T02:20:17;27.10;91.70
10344;DHT22;5217;43.960;10.954;2022-08-25T02:22:46;27.10;91.80
10344;DHT22;5217;43.960;10.954;2022-08-25T02:25:24;27.10;91.80
10344;DHT22;5217;43.960;10.954;2022-08-25T02:27:52;27.10;91.80
10344;DHT22;5217;43.960;10.954;2022-08-25T02:30:21;27.10;91.80
10344;DHT22;5217;43.960;10.954;2022-08-25T02:32:50;27.10;91.80
10344;DHT22;5217;43.960;10.954;2022-08-25T02:35:19;27.00;91.90
10344;DHT22;5217;43.960;10.954;2022-08-25T02:37:49;27.00;91.90
10344;DHT22;5217;43.960;10.954;2022-08-25T02:40:20;27.10;91.90
10344;DHT22;5217;43.960;10.954;2022-08-25T02:42:50;27.00;92.00
10344;DHT22;5217;43.960;10.954;2022-08-25T02:45:19;27.00;92.10
10344;DHT22;5217;43.960;10.954;2022-08-25T02:47:47;27.00;92.10
10344;DHT22;5217;43.960;10.954;2022-08-25T02:50:16;26.90;92.20
10344;DHT22;5217;43.960;10.954;2022-08-25T02:52:44;27.00;92.30
10344;DHT22;5217;43.960;10.954;2022-08-25T02:55:12;26.90;92.30
10344;DHT22;5217;43.960;10.954;2022-08-25T02:57:41;26.90;92.30
10344;DHT22;5217;43.960;10.954;2022-08-25T03:00:12;26.90;92.40
10344;DHT22;5217;43.960;10.954;2022-08-25T03:02:43;26.90;92.50
10344;DHT22;5217;43.960;10.954;2022-08-25T03:05:14;26.90;92.60
10344;DHT22;5217;43.960;10.954;2022-08-25T03:07:43;26.80;92.50
10344;DHT22;5217;43.960;10.954;2022-08-25T03:10:14;26.80;92.50
10344;DHT22;5217;43.960;10.954;2022-08-25T03:12:42;26.90;92.60
10344;DHT22;5217;43.960;10.954;2022-08-25T03:15:14;26.80;92.50
10344;DHT22;5217;43.960;10.954;2022-08-25T03:17:44;26.80;92.40
10344;DHT22;5217;43.960;10.954;2022-08-25T03:20:13;26.80;92.60
10344;DHT22;5217;43.960;10.954;2022-08-25T03:22:42;26.80;92.70
10344;DHT22;5217;43.960;10.954;2022-08-25T03:25:11;26.80;92.80
10344;DHT22;5217;43.960;10.954;2022-08-25T03:27:59;26.70;92.90
10344;DHT22;5217;43.960;10.954;2022-08-25T03:30:30;26.70;93.00
10344;DHT22;5217;43.960;10.954;2022-08-25T03:32:58;26.70;93.00
10344;DHT22;5217;43.960;10.954;2022-08-25T03:35:27;26.70;93.10
10344;DHT22;5217;43.960;10.954;2022-08-25T03:37:57;26.70;93.30
10344;DHT22;5217;43.960;10.954;2022-08-25T03:40:25;26.60;93.40
10344;DHT22;5217;43.960;10.954;2022-08-25T03:42:54;26.60;93.50
10344;DHT22;5217;43.960;10.954;2022-08-25T03:45:23;26.60;93.50
10344;DHT22;5217;43.960;10.954;2022-08-25T03:47:53;26.50;93.50
10344;DHT22;5217;43.960;10.954;2022-08-25T03:50:22;26.50;93.50
10344;DHT22;5217;43.960;10.954;2022-08-25T03:52:52;26.50;93.50
10344;DHT22;5217;43.960;10.954;2022-08-25T03:55:22;26.50;93.60
10344;DHT22;5217;43.960;10.954;2022-08-25T03:57:52;26.50;93.70
10344;DHT22;5217;43.960;10.954;2022-08-25T04:00:22;26.40;93.70
10344;DHT22;5217;43.960;10.954;2022-08-25T04:02:50;26.40;94.00
10344;DHT22;5217;43.960;10.954;2022-08-25T04:05:20;26.40;93.60
10344;DHT22;5217;43.960;10.954;2022-08-25T04:07:52;26.40;93.60
10344;DHT22;5217;43.960;10.954;2022-08-25T04:10:21;26.40;93.70
10344;DHT22;5217;43.960;10.954;2022-08-25T04:12:50;26.40;93.80
10344;DHT22;5217;43.960;10.954;2022-08-25T04:15:18;26.40;93.80
10344;DHT22;5217;43.960;10.954;2022-08-25T04:17:47;26.30;93.80
10344;DHT22;5217;43.960;10.954;2022-08-25T04:20:21;26.40;93.80
10344;DHT22;5217;43.960;10.954;2022-08-25T04:22:49;26.30;93.90
10344;DHT22;5217;43.960;10.954;2022-08-25T04:25:18;26.30;93.90
10344;DHT22;5217;43.960;10.954;2022-08-25T04:27:46;26.30;94.00
10344;DHT22;5217;43.960;10.954;2022-08-25T04:30:15;26.30;94.00
10344;DHT22;5217;43.960;10.954;2022-08-25T04:32:43;26.30;94.10
10344;DHT22;5217;43.960;10.954;2022-08-25T04:35:12;26.30;94.10
10344;DHT22;5217;43.960;10.954;2022-08-25T04:37:41;26.30;94.10
10344;DHT22;5217;43.960;10.954;2022-08-25T04:40:11;26.20;94.10
10344;DHT22;5217;43.960;10.954;2022-08-25T04:42:39;26.20;94.20
10344;DHT22;5217;43.960;10.954;2022-08-25T04:45:08;26.20;94.30
10344;DHT22;5217;43.960;10.954;2022-08-25T04:47:37;26.20;94.40
10344;DHT22;5217;43.960;10.954;2022-08-25T04:50:06;26.20;94.40
10344;DHT22;5217;43.960;10.954;2022-08-25T04:52:35;26.20;94.40
10344;DHT22;5217;43.960;10.954;2022-08-25T04:55:06;26.20;94.50
10344;DHT22;5217;43.960;10.954;2022-08-25T04:57:35;26.20;94.30
10344;DHT22;5217;43.960;10.954;2022-08-25T05:00:05;26.20;94.50
10344;DHT22;5217;43.960;10.954;2022-08-25T05:02:34;26.20;94.50
10344;DHT22;5217;43.960;10.954;2022-08-25T05:05:03;26.20;94.60
10344;DHT22;5217;43.960;10.954;2022-08-25T05:07:32;26.20;94.70
10344;DHT22;5217;43.960;10.954;2022-08-25T05:10:01;26.20;94.80
10344;DHT22;5217;43.960;10.954;2022-08-25T05:12:31;26.20;94.80
10344;DHT22;5217;43.960;10.954;2022-08-25T05:15:01;26.20;94.80
10344;DHT22;5217;43.960;10.954;2022-08-25T05:17:51;26.10;94.90
10344;DHT22;5217;43.960;10.954;2022-08-25T05:20:22;26.10;95.00
10344;DHT22;5217;43.960;10.954;2022-08-25T05:22:51;26.10;95.20
10344;DHT22;5217;43.960;10.954;2022-08-25T05:25:20;26.10;95.30
10344;DHT22;5217;43.960;10.954;2022-08-25T05:27:50;26.10;95.30
10344;DHT22;5217;43.960;10.954;2022-08-25T05:30:18;26.10;95.40
10344;DHT22;5217;43.960;10.954;2022-08-25T05:32:46;26.10;95.60
10344;DHT22;5217;43.960;10.954;2022-08-25T05:35:15;26.10;95.60
10344;DHT22;5217;43.960;10.954;2022-08-25T05:37:45;26.10;95.70
10344;DHT22;5217;43.960;10.954;2022-08-25T05:40:13;26.10;95.90
10344;DHT22;5217;43.960;10.954;2022-08-25T05:42:42;26.10;95.90
10344;DHT22;5217;43.960;10.954;2022-08-25T05:45:12;26.10;95.90
10344;DHT22;5217;43.960;10.954;2022-08-25T05:47:46;26.10;96.00
10344;DHT22;5217;43.960;10.954;2022-08-25T05:50:15;26.10;96.10
10344;DHT22;5217;43.960;10.954;2022-08-25T05:52:44;26.10;96.20
10344;DHT22;5217;43.960;10.954;2022-08-25T05:55:13;26.10;96.20
10344;DHT22;5217;43.960;10.954;2022-08-25T05:57:41;26.10;96.30
10344;DHT22;5217;43.960;10.954;2022-08-25T06:00:12;26.10;96.50
10344;DHT22;5217;43.960;10.954;2022-08-25T06:02:41;26.10;96.00
10344;DHT22;5217;43.960;10.954;2022-08-25T06:05:12;26.10;95.60
10344;DHT22;5217;43.960;10.954;2022-08-25T06:07:41;26.10;95.50
10344;DHT22;5217;43.960;10.954;2022-08-25T06:10:10;26.10;95.60
10344;DHT22;5217;43.960;10.954;2022-08-25T06:12:41;26.20;95.80
10344;DHT22;5217;43.960;10.954;2022-08-25T06:15:13;26.20;96.10
10344;DHT22;5217;43.960;10.954;2022-08-25T06:17:42;26.20;96.10
10344;DHT22;5217;43.960;10.954;2022-08-25T06:20:13;26.20;96.10
10344;DHT22;5217;43.960;10.954;2022-08-25T06:22:42;26.20;96.30
10344;DHT22;5217;43.960;10.954;2022-08-25T06:25:12;26.20;96.50
10344;DHT22;5217;43.960;10.954;2022-08-25T06:27:42;26.20;96.70
10344;DHT22;5217;43.960;10.954;2022-08-25T06:30:15;26.30;96.80
10344;DHT22;5217;43.960;10.954;2022-08-25T06:32:50;26.30;97.00
10344;DHT22;5217;43.960;10.954;2022-08-25T06:35:19;26.30;97.10
10344;DHT22;5217;43.960;10.954;2022-08-25T06:37:48;26.30;96.60
10344;DHT22;5217;43.960;10.954;2022-08-25T06:40:17;26.30;96.60
10344;DHT22;5217;43.960;10.954;2022-08-25T06:42:47;26.30;96.70
10344;DHT22;5217;43.960;10.954;2022-08-25T06:45:17;26.40;96.70
10344;DHT22;5217;43.960;10.954;2022-08-25T06:47:46;26.40;96.70
10344;DHT22;5217;43.960;10.954;2022-08-25T06:50:14;26.40;96.80
10344;DHT22;5217;43.960;10.954;2022-08-25T06:52:43;26.40;96.70
10344;DHT22;5217;43.960;10.954;2022-08-25T06:55:11;26.40;96.70
10344;DHT22;5217;43.960;10.954;2022-08-25T06:57:40;26.40;96.80
10344;DHT22;5217;43.960;10.954;2022-08-25T07:00:09;26.50;96.90
10344;DHT22;5217;43.960;10.954;2022-08-25T07:02:39;26.50;96.80
10344;DHT22;5217;43.960;10.954;2022-08-25T07:05:08;26.50;97.00
10344;DHT22;5217;43.960;10.954;2022-08-25T07:07:52;26.50;96.90
10344;DHT22;5217;43.960;10.954;2022-08-25T07:10:21;26.50;97.10
10344;DHT22;5217;43.960;10.954;2022-08-25T07:12:50;26.60;97.10
10344;DHT22;5217;43.960;10.954;2022-08-25T07:15:19;26.60;97.20
10344;DHT22;5217;43.960;10.954;2022-08-25T07:17:49;26.60;97.20
10344;DHT22;5217;43.960;10.954;2022-08-25T07:20:17;26.60;97.20
10344;DHT22;5217;43.960;10.954;2022-08-25T07:22:47;26.70;97.00
10344;DHT22;5217;43.960;10.954;2022-08-25T07:25:16;26.70;97.00
10344;DHT22;5217;43.960;10.954;2022-08-25T07:27:44;26.70;96.90
10344;DHT22;5217;43.960;10.954;2022-08-25T07:30:13;26.70;96.80
10344;DHT22;5217;43.960;10.954;2022-08-25T07:32:41;26.70;96.60
10344;DHT22;5217;43.960;10.954;2022-08-25T07:35:12;26.70;96.60
10344;DHT22;5217;43.960;10.954;2022-08-25T07:37:47;26.80;96.40
10344;DHT22;5217;43.960;10.954;2022-08-25T07:40:18;26.80;96.50
10344;DHT22;5217;43.960;10.954;2022-08-25T07:42:48;26.80;96.80
10344;DHT22;5217;43.960;10.954;2022-08-25T07:45:17;26.80;96.90
10344;DHT22;5217;43.960;10.954;2022-08-25T07:47:47;26.80;96.70
10344;DHT22;5217;43.960;10.954;2022-08-25T07:50:20;26.80;96.60
10344;DHT22;5217;43.960;10.954;2022-08-25T07:52:49;26.90;96.20
10344;DHT22;5217;43.960;10.954;2022-08-25T07:55:22;26.90;96.60
10344;DHT22;5217;43.960;10.954;2022-08-25T07:57:52;26.90;96.70
10344;DHT22;5217;43.960;10.954;2022-08-25T08:00:24;26.90;96.20
10344;DHT22;5217;43.960;10.954;2022-08-25T08:02:56;27.00;95.60
10344;DHT22;5217;43.960;10.954;2022-08-25T08:05:27;27.00;95.60
10344;DHT22;5217;43.960;10.954;2022-08-25T08:07:56;27.00;95.30
10344;DHT22;5217;43.960;10.954;2022-08-25T08:10:26;27.00;95.70
10344;DHT22;5217;43.960;10.954;2022-08-25T08:13:14;27.00;95.70
10344;DHT22;5217;43.960;10.954;2022-08-25T08:15:45;27.00;95.50
10344;DHT22;5217;43.960;10.954;2022-08-25T08:18:14;27.10;95.70
10344;DHT22;5217;43.960;10.954;2022-08-25T08:20:46;27.20;95.80
10344;DHT22;5217;43.960;10.954;2022-08-25T08:23:15;27.10;95.80
10344;DHT22;5217;43.960;10.954;2022-08-25T08:25:44;27.20;95.90
10344;DHT22;5217;43.960;10.954;2022-08-25T08:28:13;27.20;95.60
10344;DHT22;5217;43.960;10.954;2022-08-25T08:30:42;27.20;95.30
10344;DHT22;5217;43.960;10.954;2022-08-25T08:33:21;27.20;95.10
10344;DHT22;5217;43.960;10.954;2022-08-25T08:35:56;27.30;95.10
10344;DHT22;5217;43.960;10.954;2022-08-25T08:38:31;27.30;95.30
10344;DHT22;5217;43.960;10.954;2022-08-25T08:41:10;27.40;95.90
10344;DHT22;5217;43.960;10.954;2022-08-25T08:44:15;27.40;95.30
10344;DHT22;5217;43.960;10.954;2022-08-25T08:46:54;27.40;95.20
10344;DHT22;5217;43.960;10.954;2022-08-25T08:49:30;27.40;95.50
10344;DHT22;5217;43.960;10.954;2022-08-25T08:52:02;27.40;95.20
10344;DHT22;5217;43.960;10.954;2022-08-25T08:54:34;27.50;95.50
10344;DHT22;5217;43.960;10.954;2022-08-25T08:57:10;27.50;95.40
10344;DHT22;5217;43.960;10.954;2022-08-25T08:59:45;27.60;95.60
10344;DHT22;5217;43.960;10.954;2022-08-25T09:02:21;27.60;95.70
10344;DHT22;5217;43.960;10.954;2022-08-25T09:05:14;27.60;95.60
10344;DHT22;5217;43.960;10.954;2022-08-25T09:07:51;27.70;95.90
10344;DHT22;5217;43.960;10.954;2022-08-25T09:10:22;27.70;95.70
10344;DHT22;5217;43.960;10.954;2022-08-25T09:12:58;27.70;95.50
10344;DHT22;5217;43.960;10.954;2022-08-25T09:15:44;27.70;95.20
10344;DHT22;5217;43.960;10.954;2022-08-25T09:18:43;27.70;95.40
10344;DHT22;5217;43.960;10.954;2022-08-25T09:21:25;27.80;95.10
10344;DHT22;5217;43.960;10.954;2022-08-25T09:24:17;27.80;94.80
10344;DHT22;5217;43.960;10.954;2022-08-25T09:26:59;27.90;94.80
10344;DHT22;5217;43.960;10.954;2022-08-25T09:29:37;27.80;94.80
10344;DHT22;5217;43.960;10.954;2022-08-25T09:32:07;27.90;94.40
10344;DHT22;5217;43.960;10.954;2022-08-25T09:34:40;27.90;94.60
10344;DHT22;5217;43.960;10.954;2022-08-25T09:37:09;27.90;94.50
10344;DHT22;5217;43.960;10.954;2022-08-25T09:39:39;27.90;94.40
10344;DHT22;5217;43.960;10.954;2022-08-25T09:42:08;28.00;94.40
10344;DHT22;5217;43.960;10.954;2022-08-25T09:44:40;28.00;94.50
10344;DHT22;5217;43.960;10.954;2022-08-25T09:47:19;28.00;94.70
10344;DHT22;5217;43.960;10.954;2022-08-25T09:49:55;28.10;94.80
10344;DHT22;5217;43.960;10.954;2022-08-25T09:52:32;28.10;95.00
10344;DHT22;5217;43.960;10.954;2022-08-25T09:55:26;28.10;94.70
10344;DHT22;5217;43.960;10.954;2022-08-25T09:57:58;28.10;94.50
10344;DHT22;5217;43.960;10.954;2022-08-25T10:00:35;28.20;94.50
10344;DHT22;5217;43.960;10.954;2022-08-25T10:03:07;28.20;94.80
10344;DHT22;5217;43.960;10.954;2022-08-25T10:05:46;28.20;94.40
10344;DHT22;5217;43.960;10.954;2022-08-25T10:08:28;28.20;94.10
10344;DHT22;5217;43.960;10.954;2022-08-25T10:11:01;28.30;94.10
10344;DHT22;5217;43.960;10.954;2022-08-25T10:13:40;28.30;94.00
10344;DHT22;5217;43.960;10.954;2022-08-25T10:16:12;28.40;94.00
10344;DHT22;5217;43.960;10.954;2022-08-25T10:19:03;28.40;93.90
10344;DHT22;5217;43.960;10.954;2022-08-25T10:21:34;28.40;93.80
10344;DHT22;5217;43.960;10.954;2022-08-25T10:24:04;28.50;93.80
10344;DHT22;5217;43.960;10.954;2022-08-25T10:26:53;28.50;93.60
10344;DHT22;5217;43.960;10.954;2022-08-25T10:29:43;28.50;93.80
10344;DHT22;5217;43.960;10.954;2022-08-25T10:32:21;28.60;93.80
10344;DHT22;5217;43.960;10.954;2022-08-25T10:34:54;28.60;93.30
10344;DHT22;5217;43.960;10.954;2022-08-25T10:37:36;28.60;93.60
10344;DHT22;5217;43.960;10.954;2022-08-25T10:40:12;28.70;94.00
10344;DHT22;5217;43.960;10.954;2022-08-25T10:42:54;28.70;94.30
10344;DHT22;5217;43.960;10.954;2022-08-25T10:45:26;28.80;94.40
10344;DHT22;5217;43.960;10.954;2022-08-25T10:48:30;28.80;94.30
10344;DHT22;5217;43.960;10.954;2022-08-25T10:51:08;28.90;94.40
10344;DHT22;5217;43.960;10.954;2022-08-25T10:53:53;28.90;94.20
10344;DHT22;5217;43.960;10.954;2022-08-25T10:56:26;28.90;94.10
10344;DHT22;5217;43.960;10.954;2022-08-25T10:59:19;29.00;93.50
10344;DHT22;5217;43.960;10.954;2022-08-25T11:02:19;29.00;93.30
10344;DHT22;5217;43.960;10.954;2022-08-25T11:04:56;29.10;93.40
10344;DHT22;5217;43.960;10.954;2022-08-25T11:07:30;29.20;93.50
10344;DHT22;5217;43.960;10.954;2022-08-25T11:10:06;29.20;93.10
10344;DHT22;5217;43.960;10.954;2022-08-25T11:12:39;29.30;93.00
10344;DHT22;5217;43.960;10.954;2022-08-25T11:15:16;29.30;92.90
10344;DHT22;5217;43.960;10.954;2022-08-25T11:17:50;29.50;92.70
10344;DHT22;5217;43.960;10.954;2022-08-25T11:20:23;29.60;92.70
10344;DHT22;5217;43.960;10.954;2022-08-25T11:23:05;29.70;92.60
10344;DHT22;5217;43.960;10.954;2022-08-25T11:25:41;29.90;92.60
10344;DHT22;5217;43.960;10.954;2022-08-25T11:28:12;30.00;92.30
10344;DHT22;5217;43.960;10.954;2022-08-25T11:30:43;30.20;92.10
10344;DHT22;5217;43.960;10.954;2022-08-25T11:33:13;30.40;92.10
10344;DHT22;5217;43.960;10.954;2022-08-25T11:35:48;30.50;91.60
10344;DHT22;5217;43.960;10.954;2022-08-25T11:38:27;30.70;91.30
10344;DHT22;5217;43.960;10.954;2022-08-25T11:41:12;30.90;90.80
10344;DHT22;5217;43.960;10.954;2022-08-25T11:44:05;31.10;90.50
10344;DHT22;5217;43.960;10.954;2022-08-25T11:46:51;31.30;90.00
10344;DHT22;5217;43.960;10.954;2022-08-25T11:49:40;31.50;88.10
10344;DHT22;5217;43.960;10.954;2022-08-25T11:52:47;31.70;88.00
10344;DHT22;5217;43.960;10.954;2022-08-25T11:55:24;32.00;87.80
10344;DHT22;5217;43.960;10.954;2022-08-25T11:58:20;32.20;87.30
10344;DHT22;5217;43.960;10.954;2022-08-25T12:00:52;32.40;86.80
10344;DHT22;5217;43.960;10.954;2022-08-25T12:03:52;32.60;85.20
10344;DHT22;5217;43.960;10.954;2022-08-25T12:10:20;33.10;83.40
10344;DHT22;5217;43.960;10.954;2022-08-25T12:13:04;33.30;83.60
10344;DHT22;5217;43.960;10.954;2022-08-25T12:15:58;33.50;82.50
10344;DHT22;5217;43.960;10.954;2022-08-25T12:18:40;33.70;82.20
10344;DHT22;5217;43.960;10.954;2022-08-25T12:21:18;33.90;81.90
10344;DHT22;5217;43.960;10.954;2022-08-25T12:24:12;34.10;81.10
10344;DHT22;5217;43.960;10.954;2022-08-25T12:26:48;34.30;80.40
10344;DHT22;5217;43.960;10.954;2022-08-25T12:29:29;34.50;79.10
10344;DHT22;5217;43.960;10.954;2022-08-25T12:32:14;34.70;78.50
10344;DHT22;5217;43.960;10.954;2022-08-25T12:35:10;34.90;77.70
10344;DHT22;5217;43.960;10.954;2022-08-25T12:37:56;35.10;76.80
10344;DHT22;5217;43.960;10.954;2022-08-25T12:40:28;35.30;76.50
10344;DHT22;5217;43.960;10.954;2022-08-25T12:43:04;35.40;77.30
10344;DHT22;5217;43.960;10.954;2022-08-25T12:45:40;35.40;77.10
10344;DHT22;5217;43.960;10.954;2022-08-25T12:48:41;35.50;76.60
10344;DHT22;5217;43.960;10.954;2022-08-25T12:51:16;35.80;75.30
10344;DHT22;5217;43.960;10.954;2022-08-25T12:53:49;36.00;74.30
10344;DHT22;5217;43.960;10.954;2022-08-25T12:56:24;36.10;74.40
10344;DHT22;5217;43.960;10.954;2022-08-25T12:59:00;36.10;74.50
10344;DHT22;5217;43.960;10.954;2022-08-25T13:01:38;36.10;74.90
10344;DHT22;5217;43.960;10.954;2022-08-25T13:05:00;36.30;74.90
10344;DHT22;5217;43.960;10.954;2022-08-25T13:07:54;36.10;74.30
10344;DHT22;5217;43.960;10.954;2022-08-25T13:10:41;35.90;73.70
10344;DHT22;5217;43.960;10.954;2022-08-25T13:13:17;35.60;73.00
10344;DHT22;5217;43.960;10.954;2022-08-25T13:15:58;35.40;72.30
10344;DHT22;5217;43.960;10.954;2022-08-25T13:18:28;35.20;72.40
10344;DHT22;5217;43.960;10.954;2022-08-25T13:21:04;35.00;72.30
10344;DHT22;5217;43.960;10.954;2022-08-25T13:23:37;34.90;73.10
10344;DHT22;5217;43.960;10.954;2022-08-25T13:26:11;34.70;73.40
10344;DHT22;5217;43.960;10.954;2022-08-25T13:28:42;34.60;74.10
10344;DHT22;5217;43.960;10.954;2022-08-25T13:31:18;34.60;74.70
10344;DHT22;5217;43.960;10.954;2022-08-25T13:33:53;34.60;74.50
10344;DHT22;5217;43.960;10.954;2022-08-25T13:36:23;34.70;74.80
10344;DHT22;5217;43.960;10.954;2022-08-25T13:39:22;34.70;74.90
10344;DHT22;5217;43.960;10.954;2022-08-25T13:42:14;34.70;74.80
10344;DHT22;5217;43.960;10.954;2022-08-25T13:44:43;34.90;74.50
10344;DHT22;5217;43.960;10.954;2022-08-25T13:47:32;35.00;74.50
10344;DHT22;5217;43.960;10.954;2022-08-25T13:50:30;35.10;73.00
10344;DHT22;5217;43.960;10.954;2022-08-25T13:53:01;35.20;71.60
10344;DHT22;5217;43.960;10.954;2022-08-25T13:55:34;35.10;70.80
10344;DHT22;5217;43.960;10.954;2022-08-25T13:58:20;35.10;71.10
10344;DHT22;5217;43.960;10.954;2022-08-25T14:01:12;35.00;71.60
10344;DHT22;5217;43.960;10.954;2022-08-25T14:04:24;34.90;70.60
10344;DHT22;5217;43.960;10.954;2022-08-25T14:07:08;34.80;71.20
10344;DHT22;5217;43.960;10.954;2022-08-25T14:09:45;34.90;71.60
10344;DHT22;5217;43.960;10.954;2022-08-25T14:12:33;34.90;72.50
10344;DHT22;5217;43.960;10.954;2022-08-25T14:15:09;34.90;72.80
10344;DHT22;5217;43.960;10.954;2022-08-25T14:17:41;34.90;73.20
10344;DHT22;5217;43.960;10.954;2022-08-25T14:20:18;34.80;72.80
10344;DHT22;5217;43.960;10.954;2022-08-25T14:22:54;34.90;73.10
10344;DHT22;5217;43.960;10.954;2022-08-25T14:25:26;34.90;73.20
10344;DHT22;5217;43.960;10.954;2022-08-25T14:27:57;34.80;72.80
10344;DHT22;5217;43.960;10.954;2022-08-25T14:30:43;34.70;72.70
10344;DHT22;5217;43.960;10.954;2022-08-25T14:33:14;34.70;72.80
10344;DHT22;5217;43.960;10.954;2022-08-25T14:35:45;34.70;72.70
10344;DHT22;5217;43.960;10.954;2022-08-25T14:38:15;34.60;72.70
10344;DHT22;5217;43.960;10.954;2022-08-25T14:40:44;34.60;72.90
10344;DHT22;5217;43.960;10.954;2022-08-25T14:43:13;34.50;73.00
10344;DHT22;5217;43.960;10.954;2022-08-25T14:45:45;34.40;73.20
10344;DHT22;5217;43.960;10.954;2022-08-25T14:48:19;34.30;73.00
10344;DHT22;5217;43.960;10.954;2022-08-25T14:50:50;34.20;73.20
10344;DHT22;5217;43.960;10.954;2022-08-25T14:53:19;34.10;73.50
10344;DHT22;5217;43.960;10.954;2022-08-25T14:55:47;34.10;74.00
10344;DHT22;5217;43.960;10.954;2022-08-25T14:58:25;34.00;74.30
10344;DHT22;5217;43.960;10.954;2022-08-25T15:01:01;33.90;74.10
10344;DHT22;5217;43.960;10.954;2022-08-25T15:03:36;33.90;74.20
10344;DHT22;5217;43.960;10.954;2022-08-25T15:06:05;33.80;74.20
10344;DHT22;5217;43.960;10.954;2022-08-25T15:08:37;33.80;73.30
10344;DHT22;5217;43.960;10.954;2022-08-25T15:11:23;33.80;72.50
10344;DHT22;5217;43.960;10.954;2022-08-25T15:13:55;33.70;72.50
10344;DHT22;5217;43.960;10.954;2022-08-25T15:16:28;33.70;73.20
10344;DHT22;5217;43.960;10.954;2022-08-25T15:19:02;33.70;73.20
10344;DHT22;5217;43.960;10.954;2022-08-25T15:21:33;33.70;73.70
10344;DHT22;5217;43.960;10.954;2022-08-25T15:24:02;33.60;74.30
10344;DHT22;5217;43.960;10.954;2022-08-25T15:26:32;33.60;74.40
10344;DHT22;5217;43.960;10.954;2022-08-25T15:29:02;33.60;74.60
10344;DHT22;5217;43.960;10.954;2022-08-25T15:31:32;33.60;75.10
10344;DHT22;5217;43.960;10.954;2022-08-25T15:34:01;33.60;75.10
10344;DHT22;5217;43.960;10.954;2022-08-25T15:36:32;33.50;74.90
10344;DHT22;5217;43.960;10.954;2022-08-25T15:39:05;33.50;74.20
10344;DHT22;5217;43.960;10.954;2022-08-25T15:41:34;33.40;73.90
10344;DHT22;5217;43.960;10.954;2022-08-25T15:44:04;33.40;73.90
10344;DHT22;5217;43.960;10.954;2022-08-25T15:46:35;33.40;73.80
10344;DHT22;5217;43.960;10.954;2022-08-25T15:49:04;33.40;74.30
10344;DHT22;5217;43.960;10.954;2022-08-25T15:51:34;33.30;74.90
10344;DHT22;5217;43.960;10.954;2022-08-25T15:54:02;33.30;75.50
10344;DHT22;5217;43.960;10.954;2022-08-25T15:56:31;33.30;75.60
10344;DHT22;5217;43.960;10.954;2022-08-25T15:59:03;33.20;75.50
10344;DHT22;5217;43.960;10.954;2022-08-25T16:01:35;33.20;75.90
10344;DHT22;5217;43.960;10.954;2022-08-25T16:04:05;33.20;75.70
10344;DHT22;5217;43.960;10.954;2022-08-25T16:06:33;33.10;75.60
10344;DHT22;5217;43.960;10.954;2022-08-25T16:09:02;33.10;75.80
10344;DHT22;5217;43.960;10.954;2022-08-25T16:11:31;33.10;76.20
10344;DHT22;5217;43.960;10.954;2022-08-25T16:14:01;33.10;76.70
10344;DHT22;5217;43.960;10.954;2022-08-25T16:16:30;33.10;77.10